Stations météo

réclame
Mon MeteoGroup
Dourbes, Belgique (6455): Température de l'air & dewpoint: 26.05.2020 00:00:00 - 01.06.2020 00:00:00 (CEST)Dourbes, Belgique (6455): Vitesse du vent & gusts: 26.05.2020 00:00:00 - 01.06.2020 00:00:00 (CEST)Dourbes, Belgique (6455): Direction du vent: 26.05.2020 00:00:00 - 01.06.2020 00:00:00 (CEST)Dourbes, Belgique (6455): reduced air pressure: 26.05.2020 00:00:00 - 01.06.2020 00:00:00 (CEST)Dourbes, Belgique (6455): Ensoleillement: 26.05.2020 00:00:00 - 01.06.2020 00:00:00 (CEST)Dourbes, Belgique (6455): Quantités de précipitations: 26.05.2020 00:00:00 - 01.06.2020 00:00:00 (CEST)
Date & Time tt [°C] td [°C] ff [km/h] ff [knt] fx [km/h] fx [knt] dd ppp [hPa] sd [min] rr [mm]
01.06.2020 00:00:00 14,3 5,6 4 2 16 8 NE 1020,4 0 0,0
31.05.2020 23:00:00 15,9 6,0 8 5 14 8 NNE 1019,8 0 0,0
31.05.2020 22:00:00 16,9 5,8 7 4 16 9 N 1019,1 0 0,0
31.05.2020 21:00:00 18,9 4,9 7 4 21 12 N 1018,6 20 0,0
31.05.2020 20:00:00 19,8 3,9 11 6 27 15 NNE 1018,2 52 0,0
31.05.2020 19:00:00 21,3 3,3 10 5 28 15 N 1018,1 60 0,0
31.05.2020 18:00:00 21,3 4,0 11 6 27 14 N 1018,3 60 0,0
31.05.2020 17:00:00 21,5 4,8 9 5 26 14 NNE 1018,6 60 0,0
31.05.2020 16:00:00 20,9 4,6 12 7 28 15 N 1018,8 60 0,0
31.05.2020 15:00:00 20,5 5,1 12 6 31 17 NNE 1019,2 55 0,0
31.05.2020 14:00:00 20,5 5,0 11 6 31 17 NNE 1019,4 59 0,0
31.05.2020 13:00:00 20,2 5,0 13 7 27 15 NNE 1019,8 55 0,0
31.05.2020 12:00:00 17,9 3,9 9 5 29 15 NE 1020,4 42 0,0
31.05.2020 11:00:00 18,6 5,5 8 5 20 11 NE 1020,6 60 0,0
31.05.2020 10:00:00 17,1 6,4 5 3 11 6 NNE 1020,9 60 0,0
31.05.2020 09:00:00 14,5 6,7 4 2 9 5 ESE 1021,2 60 0,0
31.05.2020 08:00:00 11,2 7,3 0 0 4 2 N 1021,5 60 0,0
31.05.2020 07:00:00 7,8 5,8 4 2 5 3 NE 1021,8 29 0,0
31.05.2020 06:00:00 7,8 4,9 4 2 7 4 E 1021,7 0 0,0
31.05.2020 05:00:00 8,1 5,0 0 0 7 4 N 1021,3 0 0,0
31.05.2020 04:00:00 10,9 5,3 4 2 8 5 ENE 1021,0 0 0,0
31.05.2020 03:00:00 11,5 5,3 4 2 8 4 ENE 1021,0 0 0,0
31.05.2020 02:00:00 12,8 5,3 4 2 9 5 ENE 1020,9 0 0,0
31.05.2020 01:00:00 13,9 5,7 5 3 9 5 NE 1020,7 0 0,0
31.05.2020 00:00:00 15,2 5,7 5 3 9 5 NNE 1020,2 0 0,0
30.05.2020 23:00:00 16,8 5,8 6 3 18 10 NE 1019,9 0 0,0
30.05.2020 22:00:00 18,5 5,5 9 5 20 11 NNE 1019,2 0 0,0
30.05.2020 21:00:00 20,1 4,7 9 5 25 14 NNE 1018,6 16 0,0
30.05.2020 20:00:00 21,9 5,0 8 5 27 14 NNE 1018,3 40 0,0
30.05.2020 19:00:00 22,5 4,7 9 5 23 13 NNE 1018,4 31 0,0
30.05.2020 18:00:00 23,3 4,3 6 4 25 14 ENE 1018,5 53 0,0
30.05.2020 17:00:00 23,1 3,5 11 6 28 15 E 1019,0 60 0,0
30.05.2020 16:00:00 23,4 4,1 10 6 27 15 E 1019,5 60 0,0
30.05.2020 15:00:00 22,8 3,9 10 5 29 16 E 1019,9 60 0,0
30.05.2020 14:00:00 22,1 3,9 11 6 30 16 NNE 1020,2 60 0,0
30.05.2020 13:00:00 21,3 2,9 8 5 28 15 ESE 1020,8 60 0,0
30.05.2020 12:00:00 20,6 3,8 8 5 30 16 E 1021,3 60 0,0
30.05.2020 11:00:00 19,5 5,8 6 4 19 10 E 1021,8 60 0,0
30.05.2020 10:00:00 16,9 6,6 8 4 16 9 NE 1022,0 60 0,0
30.05.2020 09:00:00 14,7 7,5 4 2 9 5 NE 1022,3 60 0,0
30.05.2020 08:00:00 10,7 8,0 4 2 5 3 E 1022,6 60 0,0
30.05.2020 07:00:00 6,9 5,9 0 0 3 2 N 1023,1 28 0,0
30.05.2020 06:00:00 6,2 4,9 0 0 3 2 N 1023,1 0 0,0
30.05.2020 05:00:00 6,8 5,0 0 0 4 2 N 1023,0 0 0,0
30.05.2020 04:00:00 8,0 5,2 4 2 4 2 ESE 1023,1 0 0,0
30.05.2020 03:00:00 8,9 5,5 4 2 4 2 N 1023,0 0 0,0
30.05.2020 02:00:00 9,9 5,4 0 0 3 2 N 1023,0 0 0,0
30.05.2020 01:00:00 11,6 5,3 4 2 6 4 E 1022,8 0 0,0
30.05.2020 00:00:00 14,0 5,0 4 2 10 6 E 1022,7 0 0,0
29.05.2020 23:00:00 15,5 5,2 5 3 13 7 NE 1022,3 0 0,0
29.05.2020 22:00:00 17,1 5,0 6 3 18 10 N 1021,9 0 0,0
29.05.2020 21:00:00 19,2 4,6 7 4 23 12 N 1021,5 20 0,0
29.05.2020 20:00:00 20,9 4,2 11 6 24 13 NNE 1021,4 60 0,0
29.05.2020 19:00:00 21,7 4,3 13 7 25 14 N 1021,7 60 0,0
29.05.2020 18:00:00 22,2 4,2 11 6 29 16 N 1022,0 60 0,0
29.05.2020 17:00:00 22,5 4,2 9 5 30 16 N 1022,4 60 0,0
29.05.2020 16:00:00 22,1 3,6 9 5 23 13 NNE 1023,2 60 0,0
29.05.2020 15:00:00 21,8 2,4 10 6 24 13 ESE 1023,8 60 0,0
29.05.2020 14:00:00 21,2 2,7 11 6 31 17 ENE 1024,7 60 0,0
29.05.2020 13:00:00 20,3 3,2 10 5 28 15 ESE 1025,5 60 0,0
29.05.2020 12:00:00 19,2 3,2 10 5 26 14 ENE 1026,2 60 0,0
29.05.2020 11:00:00 17,9 5,6 6 3 18 10 NE 1026,7 60 0,0
29.05.2020 10:00:00 15,4 6,1 6 4 17 9 NE 1027,2 60 0,0
29.05.2020 09:00:00 13,0 5,8 6 3 16 8 NE 1027,6 60 0,0
29.05.2020 08:00:00 10,8 5,2 4 2 9 5 E 1027,9 60 0,0
29.05.2020 07:00:00 8,1 4,4 4 2 6 3 NE 1028,0 27 0,0
29.05.2020 06:00:00 7,3 2,9 4 2 12 6 ESE 1028,4 0 0,0
29.05.2020 05:00:00 9,0 3,5 4 2 14 8 NE 1028,1 0 0,0
29.05.2020 04:00:00 9,8 3,8 6 4 15 8 NE 1028,1 0 0,0
29.05.2020 03:00:00 10,0 3,6 4 2 13 7 NE 1028,6 0 0,0
29.05.2020 02:00:00 11,7 4,0 7 4 17 9 NNE 1028,5 0 0,0
29.05.2020 01:00:00 11,7 3,4 4 2 13 7 E 1028,7 0 0,0
29.05.2020 00:00:00 14,0 3,3 6 4 17 9 NNE 1028,5 0 0,0
28.05.2020 23:00:00 15,0 2,9 8 5 17 9 NNE 1028,3 0 0,0
28.05.2020 22:00:00 15,8 3,0 8 4 18 10 N 1028,0 0 0,0
28.05.2020 21:00:00 17,7 3,0 9 5 30 16 NNE 1027,8 19 0,0
28.05.2020 20:00:00 19,2 3,3 11 6 29 16 NNE 1027,7 60 0,0
28.05.2020 19:00:00 19,9 3,2 14 7 34 18 NNE 1028,0 60 0,0
28.05.2020 18:00:00 20,6 1,6 14 7 34 18 NNE 1028,3 60 0,0
28.05.2020 17:00:00 20,8 3,4 13 7 31 17 NNE 1028,3 60 0,0
28.05.2020 16:00:00 20,8 3,5 11 6 30 16 N 1029,0 60 0,0
28.05.2020 15:00:00 20,4 4,0 13 7 30 16 N 1029,4 60 0,0
28.05.2020 14:00:00 19,7 4,8 14 8 32 18 NNE 1030,0 60 0,0
28.05.2020 13:00:00 18,8 6,8 12 7 31 17 NNE 1030,5 60 0,0
28.05.2020 12:00:00 17,8 7,5 12 6 34 18 NE 1030,9 60 0,0
28.05.2020 11:00:00 16,0 6,1 14 8 32 18 NE 1031,4 60 0,0
28.05.2020 10:00:00 14,3 6,3 10 5 23 12 NNE 1031,8 60 0,0
28.05.2020 09:00:00 12,2 6,6 9 5 26 14 N 1032,1 60 0,0
28.05.2020 08:00:00 10,9 6,8 7 4 23 12 NNE 1032,1 60 0,0
28.05.2020 07:00:00 10,0 8,4 6 3 11 6 NNE 1032,1 22 0,0
28.05.2020 06:00:00 9,4 8,1 5 3 11 6 NNE 1032,1 0 0,0
28.05.2020 05:00:00 8,9 7,3 4 2 8 4 N 1032,2 0 0,0
28.05.2020 04:00:00 9,8 7,2 4 2 12 7 NNE 1032,2 0 0,0
28.05.2020 03:00:00 10,5 6,9 4 2 11 6 NNW 1032,2 0 0,0
28.05.2020 02:00:00 12,1 6,9 7 4 22 12 N 1032,5 0 0,0
28.05.2020 01:00:00 13,3 6,8 7 4 16 8 N 1032,4 0 0,0
28.05.2020 00:00:00 14,0 6,5 5 3 17 9 N 1032,5 0 0,0
27.05.2020 23:00:00 16,0 8,1 7 4 21 11 N 1032,0 0 0,0
27.05.2020 22:00:00 17,7 9,6 10 5 18 10 N 1031,3 0 0,0
27.05.2020 21:00:00 19,7 9,1 9 5 23 12 N 1030,6 19 0,0
27.05.2020 20:00:00 21,4 8,7 7 4 22 12 N 1030,4 45 0,0
27.05.2020 19:00:00 22,5 10,0 13 7 22 12 NNW 1030,3 54 0,0
27.05.2020 18:00:00 22,9 10,3 10 5 23 13 N 1030,7 52 0,0
27.05.2020 17:00:00 22,3 10,6 9 5 24 13 NNW 1030,8 43 0,0
27.05.2020 16:00:00 23,4 10,3 8 5 20 11 N 1031,1 49 0,0
27.05.2020 15:00:00 23,3 10,0 6 3 22 12 N 1031,4 57 0,0
27.05.2020 14:00:00 22,6 9,6 11 6 21 11 NNW 1031,8 60 0,0
27.05.2020 13:00:00 21,9 8,9 5 3 16 9 NNW 1032,2 60 0,0
27.05.2020 12:00:00 21,1 7,3 5 3 13 7 ENE 1032,6 60 0,0
27.05.2020 11:00:00 20,0 8,1 5 3 9 5 NW 1033,1 60 0,0
27.05.2020 10:00:00 17,2 10,7 4 2 8 4 SSW 1033,3 60 0,0
27.05.2020 09:00:00 13,1 10,1 4 2 4 2 S 1034,0 60 0,0
27.05.2020 08:00:00 9,9 8,9 0 0 2 1 N 1034,3 60 0,0
27.05.2020 07:00:00 8,0 7,9 0 0 3 2 N 1034,4 22 0,0
27.05.2020 06:00:00 7,2 6,9 4 2 3 2 SSE 1034,2 0 0,0
27.05.2020 05:00:00 7,7 7,2 4 2 3 2 E 1033,9 0 0,0
27.05.2020 04:00:00 8,6 7,9 0 0 4 2 N 1033,9 0 0,0
27.05.2020 03:00:00 9,1 8,1 4 2 4 2 SSE 1034,1 0 0,0
27.05.2020 02:00:00 10,2 8,3 0 0 6 3 N 1034,2 0 0,0
27.05.2020 01:00:00 11,6 8,9 4 2 5 3 S 1034,0 0 0,0
27.05.2020 00:00:00 13,3 8,5 4 2 7 4 W 1033,9 0 0,0
26.05.2020 23:00:00 15,7 8,7 4 2 9 5 E 1033,5 0 0,0
26.05.2020 22:00:00 17,0 8,5 5 3 9 5 NNE 1033,1 0 0,0
26.05.2020 21:00:00 19,3 8,7 4 2 12 6 N 1032,7 18 0,0
26.05.2020 20:00:00 21,1 8,4 7 4 22 12 NNE 1032,5 58 0,0
26.05.2020 19:00:00 21,9 8,3 10 5 24 13 NNE 1032,5 51 0,0
26.05.2020 18:00:00 22,4 8,6 11 6 27 15 N 1032,6 57 0,0
26.05.2020 17:00:00 22,1 8,1 9 5 31 17 NNE 1033,0 58 0,0
26.05.2020 16:00:00 22,1 8,2 13 7 25 13 N 1033,2 60 0,0
26.05.2020 15:00:00 21,8 8,3 10 5 31 17 N 1033,4 59 0,0
26.05.2020 14:00:00 21,5 8,3 14 8 27 15 N 1033,7 60 0,0
26.05.2020 13:00:00 20,7 8,7 10 6 30 16 NNE 1034,0 60 0,0
26.05.2020 12:00:00 19,6 8,3 13 7 25 13 N 1034,5 60 0,0
26.05.2020 11:00:00 18,3 11,5 7 4 19 10 NNE 1034,8 60 0,0
26.05.2020 10:00:00 16,1 10,5 6 3 11 6 ENE 1035,0 60 0,0
26.05.2020 09:00:00 12,6 10,9 4 2 5 3 S 1035,3 60 0,0
26.05.2020 08:00:00 10,4 10,3 0 0 3 2 N 1035,1 60 0,0
26.05.2020 07:00:00 7,6 7,6 0 0 3 1 N 1035,2 22 0,0
26.05.2020 06:00:00 6,9 6,8 0 0 3 2 N 1035,0 0 0,0
26.05.2020 05:00:00 7,8 7,6 0 0 3 2 N 1034,6 0 0,0
26.05.2020 04:00:00 8,3 7,8 0 0 4 2 N 1034,5 0 0,0
26.05.2020 03:00:00 9,0 8,0 4 2 5 3 SSW 1034,5 0 0,0
26.05.2020 02:00:00 10,4 8,7 4 2 5 3 SSE 1034,5 0 0,0
26.05.2020 01:00:00 11,5 9,0 0 0 8 4 N 1034,5 0 0,0
26.05.2020 00:00:00 14,1 9,2 6 3 16 9 N 1034,1 0 0,0

tt = Température de l'air
td = dewpoint
ff = Vitesse du vent
fx = gusts
dd = Direction du vent
ppp = reduced air pressure
sd = Ensoleillement
rr = Quantités de précipitations

stations d'obs. à proximité